Time;durP1;ratioP1;P1;durP2;ratioP2;P2;SDS_P1;SDS_P2;PMS_P1;PMS_P2;Temp;Humidity;BMP_temperature;BMP_pressure;BME280_temperature;BME280_humidity;BME280_pressure;Samples;Min_cycle;Max_cycle;Signal;HPM_P1;HPM_P2
2021/11/20 00:00:37;;;;;;;3.37;2.40;;;21.90;55.50;;;;;;5032798;28;20918;-77
2021/11/20 00:03:04;;;;;;;3.07;2.47;;;21.90;55.50;;;;;;5054282;28;20834;-78
2021/11/20 00:05:36;;;;;;;2.27;1.93;;;21.90;55.50;;;;;;5054466;28;20398;-77
2021/11/20 00:08:05;;;;;;;2.27;1.80;;;21.90;55.50;;;;;;5050594;28;20527;-77
2021/11/20 00:10:33;;;;;;;2.80;2.53;;;21.90;55.50;;;;;;5050806;28;20414;-77
2021/11/20 00:12:59;;;;;;;2.90;2.20;;;21.90;55.50;;;;;;5050828;28;20445;-77
2021/11/20 00:18:48;;;;;;;2.23;1.83;;;22.00;55.60;;;;;;5052949;28;20450;-77
2021/11/20 00:21:22;;;;;;;3.30;2.07;;;21.90;55.60;;;;;;5037443;28;20434;-77
2021/11/20 00:23:52;;;;;;;2.70;2.20;;;21.90;55.60;;;;;;5053561;28;20414;-76
2021/11/20 00:26:27;;;;;;;4.40;2.63;;;21.90;55.60;;;;;;5053736;28;20399;-76
2021/11/20 00:31:32;;;;;;;3.13;2.10;;;21.90;55.60;;;;;;5052884;28;20414;-78
2021/11/20 00:33:58;;;;;;;2.40;2.10;;;21.90;55.60;;;;;;5052348;28;20419;-78
2021/11/20 00:36:24;;;;;;;2.67;2.30;;;21.90;55.60;;;;;;5034908;28;20411;-78
2021/11/20 00:38:51;;;;;;;3.80;2.30;;;21.90;55.60;;;;;;5053401;28;20829;-78
2021/11/20 00:41:22;;;;;;;2.30;1.90;;;21.90;55.60;;;;;;5052750;28;20407;-78
2021/11/20 00:43:54;;;;;;;3.63;1.80;;;21.90;55.60;;;;;;5035897;28;20415;-78
2021/11/20 00:46:22;;;;;;;3.27;2.50;;;21.90;55.70;;;;;;5053204;28;20403;-77
2021/11/20 00:48:49;;;;;;;3.50;2.50;;;21.90;55.60;;;;;;5050197;28;20428;-77
2021/11/20 00:51:18;;;;;;;3.20;2.00;;;21.90;55.70;;;;;;5016422;28;20451;-77
2021/11/20 00:53:45;;;;;;;3.17;2.77;;;21.80;55.50;;;;;;5050245;28;20471;-77
2021/11/20 00:56:16;;;;;;;2.50;1.70;;;21.90;55.70;;;;;;5035818;28;20429;-77
2021/11/20 00:58:44;;;;;;;4.40;2.53;;;21.90;55.70;;;;;;5052408;28;20426;-77
2021/11/20 01:01:14;;;;;;;2.53;2.20;;;21.90;55.70;;;;;;5053402;28;20442;-78
2021/11/20 01:03:41;;;;;;;2.60;2.27;;;21.90;55.70;;;;;;5036389;28;20430;-77
2021/11/20 01:06:07;;;;;;;2.77;2.20;;;21.90;55.70;;;;;;5046296;28;20430;-77
2021/11/20 01:08:38;;;;;;;3.20;2.63;;;21.80;55.60;;;;;;5052326;28;20438;-78
2021/11/20 01:11:12;;;;;;;2.47;2.20;;;21.90;55.70;;;;;;5045404;28;20425;-77
2021/11/20 01:13:39;;;;;;;3.33;2.20;;;21.80;55.60;;;;;;5050676;28;20425;-77
2021/11/20 01:16:10;;;;;;;2.80;2.27;;;21.80;55.60;;;;;;5052061;28;20453;-77
2021/11/20 01:18:37;;;;;;;2.93;2.30;;;21.80;55.60;;;;;;5048644;28;20445;-77
2021/11/20 01:21:05;;;;;;;2.80;2.20;;;21.80;55.60;;;;;;5032261;28;20429;-77
2021/11/20 01:23:33;;;;;;;3.07;2.70;;;21.80;55.60;;;;;;5051439;28;20441;-78
2021/11/20 01:26:01;;;;;;;2.60;2.20;;;21.80;55.60;;;;;;5051031;28;20425;-78
2021/11/20 01:28:33;;;;;;;3.00;2.33;;;21.80;55.60;;;;;;5050159;28;20457;-78
2021/11/20 01:31:01;;;;;;;3.60;2.20;;;21.80;55.60;;;;;;5052382;28;20406;-78
2021/11/20 01:33:29;;;;;;;2.83;2.10;;;21.80;55.60;;;;;;5051843;28;20421;-77
2021/11/20 01:35:55;;;;;;;2.80;2.13;;;21.80;55.60;;;;;;5035845;28;20442;-76
2021/11/20 01:38:21;;;;;;;2.37;1.90;;;21.80;55.60;;;;;;5034707;28;20412;-77
2021/11/20 01:40:49;;;;;;;3.17;2.00;;;21.80;55.70;;;;;;5032726;28;20415;-76
2021/11/20 01:43:16;;;;;;;2.70;2.07;;;21.80;55.60;;;;;;5034219;28;20419;-77
2021/11/20 01:45:48;;;;;;;2.33;1.87;;;21.80;55.60;;;;;;5033570;28;20407;-76
2021/11/20 01:48:54;;;;;;;2.70;1.97;;;21.80;55.60;;;;;;5033613;28;20501;-77
2021/11/20 01:51:20;;;;;;;2.30;1.80;;;21.80;55.60;;;;;;5021290;28;20526;-76
2021/11/20 01:54:01;;;;;;;2.60;2.23;;;21.80;55.70;;;;;;5033004;28;20423;-76
2021/11/20 01:56:44;;;;;;;2.37;2.10;;;21.80;55.70;;;;;;5039012;28;20186;-76
2021/11/20 01:59:36;;;;;;;3.33;2.60;;;21.80;55.70;;;;;;5053368;28;20428;-76
2021/11/20 02:02:15;;;;;;;2.37;2.00;;;21.80;55.70;;;;;;4960813;29;20429;-76
2021/11/20 02:05:00;;;;;;;2.80;2.40;;;21.80;55.70;;;;;;4959377;29;20423;-76
2021/11/20 02:07:43;;;;;;;2.43;2.20;;;21.80;55.70;;;;;;4942865;29;20466;-77
2021/11/20 02:10:16;;;;;;;2.80;2.20;;;21.80;55.70;;;;;;4944546;29;20410;-76
2021/11/20 02:12:49;;;;;;;2.00;1.80;;;21.80;55.70;;;;;;4969547;29;20418;-77
2021/11/20 02:15:23;;;;;;;2.33;1.60;;;21.80;55.70;;;;;;4961200;29;20444;-77
2021/11/20 02:17:53;;;;;;;2.70;1.97;;;21.80;55.70;;;;;;4961664;29;20422;-77
2021/11/20 02:20:39;;;;;;;3.90;2.27;;;21.80;55.70;;;;;;4962076;29;20413;-77
2021/11/20 02:23:06;;;;;;;2.73;1.90;;;21.80;55.70;;;;;;4976674;29;20438;-77
2021/11/20 02:25:31;;;;;;;3.13;2.00;;;21.80;55.70;;;;;;4960277;29;20449;-77
2021/11/20 02:27:59;;;;;;;2.57;2.37;;;21.80;55.70;;;;;;4975178;28;20469;-76
2021/11/20 02:30:27;;;;;;;3.03;2.20;;;21.80;55.70;;;;;;4944975;29;20182;-77
2021/11/20 02:33:03;;;;;;;2.40;2.00;;;21.80;55.70;;;;;;4960199;29;20537;-77
2021/11/20 02:35:39;;;;;;;3.37;2.50;;;21.80;55.70;;;;;;4959809;29;20506;-77
2021/11/20 02:38:08;;;;;;;2.53;2.00;;;21.80;55.70;;;;;;4968254;28;20437;-77
2021/11/20 02:40:35;;;;;;;2.33;1.90;;;21.80;55.70;;;;;;5049595;28;20445;-78
2021/11/20 02:43:01;;;;;;;2.50;2.00;;;21.80;56.20;;;;;;5052003;28;20426;-78
2021/11/20 02:45:41;;;;;;;4.00;3.27;;;21.80;55.70;;;;;;5039256;28;20438;-78
2021/11/20 02:48:09;;;;;;;3.10;1.97;;;21.80;55.70;;;;;;5055328;28;20227;-78
2021/11/20 02:50:45;;;;;;;1.93;1.73;;;21.80;55.70;;;;;;5054608;28;20501;-78
2021/11/20 02:53:16;;;;;;;2.83;2.03;;;21.80;55.70;;;;;;5055290;28;20394;-78
2021/11/20 02:55:45;;;;;;;2.60;1.90;;;21.80;55.70;;;;;;5054346;28;20410;-77
2021/11/20 02:58:16;;;;;;;2.50;1.90;;;21.80;55.70;;;;;;5055616;28;20417;-78
2021/11/20 03:00:47;;;;;;;2.53;1.80;;;21.80;55.70;;;;;;5055221;28;20403;-78
2021/11/20 03:03:14;;;;;;;3.10;2.27;;;21.80;55.70;;;;;;5035952;28;20431;-78
2021/11/20 03:05:40;;;;;;;2.00;1.77;;;21.80;55.70;;;;;;5035947;28;20445;-78
2021/11/20 03:08:06;;;;;;;2.73;1.80;;;21.80;55.70;;;;;;5018238;28;20474;-78
2021/11/20 03:10:32;;;;;;;2.33;1.87;;;21.80;55.70;;;;;;5036498;28;20420;-78
2021/11/20 03:12:58;;;;;;;2.10;1.60;;;21.80;55.70;;;;;;5034260;28;20446;-78
2021/11/20 03:15:24;;;;;;;2.03;1.63;;;21.80;55.70;;;;;;5035397;28;20204;-78
2021/11/20 03:17:51;;;;;;;2.50;1.97;;;21.80;55.70;;;;;;5040846;28;20509;-78
2021/11/20 03:20:18;;;;;;;3.67;1.80;;;21.80;55.70;;;;;;5055066;28;20450;-78
2021/11/20 03:23:08;;;;;;;2.20;1.70;;;21.80;55.70;;;;;;5055295;28;20445;-78
2021/11/20 03:25:36;;;;;;;2.73;2.10;;;21.80;55.70;;;;;;5035173;28;20467;-77
2021/11/20 03:28:03;;;;;;;2.17;1.73;;;21.80;55.70;;;;;;5033745;28;20459;-78
2021/11/20 03:30:30;;;;;;;2.07;1.87;;;21.80;55.70;;;;;;5053938;28;20414;-78
2021/11/20 03:32:56;;;;;;;1.90;1.53;;;21.80;55.70;;;;;;5053950;28;20478;-78
2021/11/20 03:35:23;;;;;;;4.30;2.40;;;21.80;55.70;;;;;;5054354;28;20437;-78
2021/11/20 03:37:49;;;;;;;1.93;1.67;;;21.80;55.70;;;;;;5053934;28;20423;-77
2021/11/20 03:40:16;;;;;;;2.10;1.83;;;21.80;55.70;;;;;;5053858;28;20418;-77
2021/11/20 03:42:42;;;;;;;2.23;1.80;;;21.80;55.70;;;;;;5053668;28;20426;-78
2021/11/20 03:45:09;;;;;;;2.20;2.00;;;21.80;55.70;;;;;;5054886;28;20414;-78
2021/11/20 03:47:36;;;;;;;2.13;1.93;;;21.80;55.70;;;;;;5054063;28;20485;-77
2021/11/20 03:50:03;;;;;;;2.03;1.70;;;21.80;55.70;;;;;;5054351;28;20462;-78
2021/11/20 03:52:29;;;;;;;1.90;1.50;;;21.80;55.70;;;;;;5051436;28;20419;-78
2021/11/20 03:54:55;;;;;;;2.53;1.83;;;21.80;55.70;;;;;;5034624;28;20443;-77
2021/11/20 03:57:23;;;;;;;2.90;1.70;;;21.80;55.70;;;;;;5036182;28;20172;-77
2021/11/20 03:59:50;;;;;;;2.50;1.60;;;21.80;55.70;;;;;;5034895;28;20657;-77
2021/11/20 04:02:16;;;;;;;2.10;1.80;;;21.80;55.70;;;;;;5036291;28;20415;-78
2021/11/20 04:04:41;;;;;;;3.23;2.00;;;21.70;55.60;;;;;;5036106;28;20419;-77
2021/11/20 04:07:07;;;;;;;2.30;1.60;;;21.70;55.60;;;;;;5035254;28;20466;-78
2021/11/20 04:09:33;;;;;;;2.57;1.90;;;21.80;55.70;;;;;;5035249;28;20184;-77
2021/11/20 04:12:00;;;;;;;2.03;1.80;;;21.80;55.70;;;;;;5035013;28;20172;-77
2021/11/20 04:14:26;;;;;;;2.30;1.70;;;21.70;55.70;;;;;;5034098;28;20446;-78
2021/11/20 04:16:53;;;;;;;1.93;1.70;;;21.70;55.70;;;;;;5035587;28;20392;-78
2021/11/20 04:19:20;;;;;;;2.97;1.87;;;21.70;55.70;;;;;;5035932;28;20422;-78
2021/11/20 04:21:47;;;;;;;2.43;1.83;;;21.80;55.70;;;;;;5034895;28;20407;-78
2021/11/20 04:24:13;;;;;;;2.17;1.97;;;21.80;55.70;;;;;;5033642;28;20427;-77
2021/11/20 04:26:39;;;;;;;2.53;2.00;;;21.80;55.70;;;;;;5033494;28;20430;-78
2021/11/20 04:29:05;;;;;;;2.37;2.03;;;21.80;55.70;;;;;;5033094;28;20430;-78
2021/11/20 04:31:32;;;;;;;2.80;1.87;;;21.80;55.70;;;;;;5033496;28;20446;-78
2021/11/20 04:33:58;;;;;;;2.53;1.57;;;21.70;55.60;;;;;;5049556;28;20449;-78
2021/11/20 04:36:25;;;;;;;2.20;1.90;;;21.80;55.70;;;;;;5053008;28;20506;-78
2021/11/20 04:38:51;;;;;;;1.73;1.63;;;21.70;55.60;;;;;;5039376;28;20422;-78
2021/11/20 04:41:21;;;;;;;1.73;1.53;;;21.70;55.60;;;;;;5033793;28;20487;-78
2021/11/20 04:43:51;;;;;;;2.40;1.73;;;21.70;55.60;;;;;;5049521;28;20462;-78
2021/11/20 04:46:19;;;;;;;2.53;1.63;;;21.70;55.70;;;;;;5035361;28;20410;-78
2021/11/20 04:48:45;;;;;;;3.00;2.30;;;21.70;55.70;;;;;;5052657;28;20458;-78
2021/11/20 04:51:12;;;;;;;2.00;1.80;;;21.70;55.70;;;;;;5053273;28;20517;-78
2021/11/20 04:53:40;;;;;;;3.40;1.90;;;21.70;55.70;;;;;;5053581;28;20210;-78
2021/11/20 04:56:08;;;;;;;1.97;1.83;;;21.70;55.70;;;;;;5054062;28;20406;-78
2021/11/20 04:58:34;;;;;;;2.87;1.70;;;21.70;55.70;;;;;;5054535;28;20422;-78
2021/11/20 05:01:05;;;;;;;2.50;1.50;;;21.70;55.70;;;;;;5053452;28;20450;-78
2021/11/20 05:03:31;;;;;;;2.00;1.50;;;21.70;55.70;;;;;;5053742;28;20417;-78
2021/11/20 05:05:58;;;;;;;2.33;1.50;;;21.70;55.70;;;;;;5053458;28;20422;-78
2021/11/20 05:08:24;;;;;;;2.30;1.90;;;21.70;55.70;;;;;;5053961;28;20465;-78
2021/11/20 05:10:53;;;;;;;2.40;1.70;;;21.60;55.60;;;;;;5054476;28;20407;-77
2021/11/20 05:13:20;;;;;;;1.97;1.63;;;21.60;55.70;;;;;;5052482;28;20453;-78
2021/11/20 05:15:48;;;;;;;1.90;1.70;;;21.60;55.70;;;;;;5053253;28;20410;-78
2021/11/20 05:18:15;;;;;;;2.13;1.77;;;21.60;55.70;;;;;;5054357;28;20421;-77
2021/11/20 05:20:41;;;;;;;2.33;1.57;;;21.60;55.70;;;;;;5052904;28;20422;-77
2021/11/20 05:23:08;;;;;;;1.87;1.50;;;21.60;55.70;;;;;;5051987;28;20418;-78
2021/11/20 05:25:36;;;;;;;2.27;1.47;;;21.60;55.70;;;;;;5052505;28;20398;-78
2021/11/20 05:28:02;;;;;;;2.40;2.00;;;21.60;55.70;;;;;;5052226;28;20469;-77
2021/11/20 05:30:36;;;;;;;2.20;1.60;;;21.60;55.70;;;;;;5052756;28;20422;-77
2021/11/20 05:33:06;;;;;;;2.20;1.70;;;21.60;55.70;;;;;;5048813;28;20419;-77
2021/11/20 05:35:33;;;;;;;2.30;1.70;;;21.60;55.70;;;;;;5034631;28;20459;-77
2021/11/20 05:37:59;;;;;;;2.37;1.83;;;21.60;55.60;;;;;;5053027;28;20468;-76
2021/11/20 05:40:26;;;;;;;2.37;1.70;;;21.60;55.60;;;;;;5052098;28;20421;-78
2021/11/20 05:42:55;;;;;;;2.50;1.70;;;21.60;55.60;;;;;;5052466;28;20469;-78
2021/11/20 05:45:27;;;;;;;2.73;1.57;;;21.70;55.70;;;;;;5052947;28;20418;-77
2021/11/20 05:47:53;;;;;;;2.70;1.60;;;21.70;55.70;;;;;;5052970;28;20477;-77
2021/11/20 05:50:21;;;;;;;2.33;1.70;;;21.70;55.70;;;;;;5052468;28;20466;-77
2021/11/20 05:52:48;;;;;;;2.30;1.80;;;21.70;55.60;;;;;;5035815;28;20418;-77
2021/11/20 05:55:15;;;;;;;2.77;1.60;;;21.70;55.60;;;;;;5052031;28;20418;-78
2021/11/20 05:57:41;;;;;;;2.00;1.30;;;21.70;55.60;;;;;;5052087;28;20422;-77
2021/11/20 06:00:12;;;;;;;2.63;1.73;;;21.70;55.60;;;;;;5053498;28;20403;-77
2021/11/20 06:02:38;;;;;;;1.50;1.33;;;21.70;55.60;;;;;;5052980;28;20179;-77
2021/11/20 06:05:06;;;;;;;1.90;1.60;;;21.70;55.60;;;;;;5053521;28;20437;-77
2021/11/20 06:07:31;;;;;;;1.90;1.50;;;21.70;55.60;;;;;;5052126;28;20461;-78
2021/11/20 06:09:57;;;;;;;2.00;1.43;;;21.70;55.60;;;;;;5052210;28;20422;-77
2021/11/20 06:12:24;;;;;;;2.60;2.00;;;21.70;55.50;;;;;;5052961;28;20183;-78
2021/11/20 06:14:51;;;;;;;1.73;1.50;;;21.70;55.50;;;;;;5040409;28;20172;-77
2021/11/20 06:17:17;;;;;;;2.10;1.67;;;21.70;55.50;;;;;;5049278;28;20423;-77
2021/11/20 06:19:42;;;;;;;2.40;1.70;;;21.80;55.50;;;;;;5044043;28;20506;-77
2021/11/20 06:22:08;;;;;;;2.47;1.47;;;21.80;55.60;;;;;;5048227;28;20179;-77
2021/11/20 06:24:34;;;;;;;1.83;1.43;;;21.80;55.50;;;;;;5047087;28;20180;-77
2021/11/20 06:27:01;;;;;;;1.77;1.43;;;21.80;55.50;;;;;;5051418;28;20917;-77
2021/11/20 06:29:27;;;;;;;2.07;1.83;;;21.80;55.50;;;;;;5051522;28;20470;-77
2021/11/20 06:31:52;;;;;;;1.70;1.50;;;21.80;55.50;;;;;;5052649;28;20793;-77
2021/11/20 06:34:21;;;;;;;1.80;1.50;;;21.80;56.00;;;;;;5050497;28;20172;-77
2021/11/20 06:36:48;;;;;;;2.20;1.73;;;21.80;55.50;;;;;;5031851;28;20176;-77
2021/11/20 06:39:15;;;;;;;1.70;1.60;;;21.80;55.50;;;;;;5047701;28;20416;-76
2021/11/20 06:41:41;;;;;;;1.80;1.30;;;21.80;55.50;;;;;;5032445;28;20407;-78
2021/11/20 06:44:07;;;;;;;2.00;1.50;;;21.80;55.50;;;;;;5048251;28;20438;-78
2021/11/20 06:46:36;;;;;;;1.90;1.70;;;21.80;55.40;;;;;;5052969;28;20402;-80
2021/11/20 06:49:03;;;;;;;1.87;1.40;;;21.80;55.40;;;;;;5053977;28;20402;-78
2021/11/20 06:51:29;;;;;;;1.40;1.30;;;21.80;55.40;;;;;;5055223;28;20793;-77
2021/11/20 06:53:58;;;;;;;1.83;1.30;;;21.80;55.40;;;;;;5055641;28;20434;-78
2021/11/20 06:56:43;;;;;;;1.60;1.47;;;21.80;55.40;;;;;;5055286;28;20793;-77
2021/11/20 07:01:51;;;;;;;1.67;1.57;;;21.80;55.40;;;;;;5057386;28;20398;-78
2021/11/20 07:04:26;;;;;;;1.30;1.20;;;21.80;55.40;;;;;;5057199;28;20406;-77
2021/11/20 07:07:01;;;;;;;1.50;1.30;;;21.80;55.40;;;;;;5072372;28;20828;-78
2021/11/20 07:09:28;;;;;;;2.47;1.40;;;21.80;55.40;;;;;;5074100;28;20417;-78
2021/11/20 07:11:53;;;;;;;1.53;1.20;;;21.80;55.40;;;;;;5056588;28;20784;-78
2021/11/20 07:14:20;;;;;;;3.13;1.73;;;21.80;55.40;;;;;;5055486;28;20429;-78
2021/11/20 07:16:47;;;;;;;1.90;1.30;;;21.80;55.40;;;;;;5057414;28;20700;-78
2021/11/20 07:19:13;;;;;;;2.57;1.67;;;21.80;55.40;;;;;;5057454;28;20391;-78
2021/11/20 07:21:39;;;;;;;2.23;1.47;;;21.80;55.40;;;;;;5055759;28;20449;-78
2021/11/20 07:24:09;;;;;;;1.90;1.70;;;21.90;55.50;;;;;;5055316;28;20417;-77
2021/11/20 07:26:36;;;;;;;1.70;1.30;;;21.80;55.40;;;;;;5056216;28;20410;-77
2021/11/20 07:29:03;;;;;;;2.63;2.00;;;21.80;55.40;;;;;;5055093;28;20410;-77
2021/11/20 07:31:32;;;;;;;1.77;1.67;;;21.80;55.40;;;;;;5056458;28;20418;-78
2021/11/20 07:33:59;;;;;;;2.00;1.80;;;21.80;55.40;;;;;;5054761;28;20390;-77
2021/11/20 07:36:25;;;;;;;2.10;1.80;;;21.80;55.40;;;;;;5052002;28;20415;-76
2021/11/20 07:38:55;;;;;;;2.50;1.70;;;21.80;55.40;;;;;;5035947;28;20414;-78
2021/11/20 07:41:24;;;;;;;2.00;1.50;;;21.80;55.40;;;;;;5053361;28;20453;-78
2021/11/20 07:43:56;;;;;;;4.13;2.10;;;21.80;55.40;;;;;;5055636;28;20764;-78
2021/11/20 07:46:23;;;;;;;2.10;1.40;;;21.80;55.40;;;;;;5052328;28;20419;-79
2021/11/20 07:48:49;;;;;;;2.07;1.87;;;21.80;55.40;;;;;;5050975;28;20522;-79
2021/11/20 07:51:15;;;;;;;1.60;1.50;;;21.80;55.40;;;;;;5049773;28;20431;-80
2021/11/20 07:53:43;;;;;;;2.67;1.77;;;21.80;55.40;;;;;;5051457;28;20472;-80
2021/11/20 07:56:09;;;;;;;1.60;1.40;;;21.80;55.40;;;;;;5035544;28;20454;-79
2021/11/20 07:58:37;;;;;;;1.93;1.77;;;21.80;55.50;;;;;;5030965;28;20422;-80
2021/11/20 08:01:03;;;;;;;1.57;1.20;;;21.80;55.40;;;;;;5028146;28;20430;-79
2021/11/20 08:03:29;;;;;;;1.73;1.63;;;21.80;55.40;;;;;;5050176;28;20431;-79
2021/11/20 08:05:55;;;;;;;2.27;1.50;;;21.80;55.50;;;;;;5051891;28;20398;-79
2021/11/20 08:08:21;;;;;;;2.80;1.57;;;21.80;55.40;;;;;;5052002;28;20253;-79
2021/11/20 08:10:49;;;;;;;2.37;1.70;;;21.80;55.50;;;;;;5069304;28;20442;-79
2021/11/20 08:13:15;;;;;;;2.20;1.40;;;21.80;55.40;;;;;;5052963;28;20407;-80
2021/11/20 08:15:41;;;;;;;1.70;1.30;;;21.80;55.40;;;;;;5052700;28;20438;-79
2021/11/20 08:18:09;;;;;;;2.90;1.40;;;21.90;55.50;;;;;;5053627;28;20470;-79
2021/11/20 08:20:40;;;;;;;1.60;1.40;;;21.90;55.50;;;;;;5051606;28;20422;-79
2021/11/20 08:23:10;;;;;;;1.87;1.33;;;21.90;55.50;;;;;;5052181;28;20406;-78
2021/11/20 08:25:40;;;;;;;1.93;1.70;;;21.90;55.50;;;;;;5066454;28;20430;-79
2021/11/20 08:28:08;;;;;;;1.70;1.43;;;21.80;55.40;;;;;;5050901;28;20450;-78
2021/11/20 08:30:38;;;;;;;1.60;1.30;;;21.80;55.40;;;;;;5049838;28;20418;-79
2021/11/20 08:33:06;;;;;;;1.77;1.27;;;21.90;55.50;;;;;;5050584;28;20398;-79
2021/11/20 08:35:33;;;;;;;1.77;1.40;;;21.90;55.50;;;;;;5049777;28;20427;-79
2021/11/20 08:38:00;;;;;;;1.93;1.33;;;21.90;55.50;;;;;;5049765;28;20418;-78
2021/11/20 08:40:30;;;;;;;1.63;1.30;;;21.90;55.50;;;;;;5049444;28;20425;-81
2021/11/20 08:42:57;;;;;;;1.80;1.57;;;21.90;55.50;;;;;;5050281;28;20422;-80
2021/11/20 08:45:26;;;;;;;2.43;1.70;;;21.90;55.50;;;;;;5050595;28;20422;-79
2021/11/20 08:47:53;;;;;;;1.93;1.27;;;21.90;55.40;;;;;;5046085;28;20454;-77
2021/11/20 08:50:25;;;;;;;2.23;1.40;;;21.90;55.50;;;;;;5048579;28;20446;-79
2021/11/20 08:52:53;;;;;;;2.50;1.30;;;21.90;55.50;;;;;;5049148;28;20407;-79
2021/11/20 08:55:22;;;;;;;2.33;1.30;;;21.90;55.40;;;;;;5045970;28;20434;-78
2021/11/20 08:57:49;;;;;;;1.50;1.27;;;21.90;55.50;;;;;;5028520;28;20419;-79
2021/11/20 09:00:41;;;;;;;1.60;1.33;;;21.90;55.50;;;;;;5029599;28;20456;-79
2021/11/20 09:03:38;;;;;;;2.60;1.83;;;21.90;55.50;;;;;;5031617;28;20384;-79
2021/11/20 09:06:48;;;;;;;2.40;1.80;;;21.90;55.50;;;;;;5031439;28;20403;-79
2021/11/20 09:09:17;;;;;;;1.83;1.73;;;21.80;55.40;;;;;;5030981;28;20442;-79
2021/11/20 09:11:48;;;;;;;3.10;1.80;;;21.80;55.50;;;;;;5031168;28;20454;-80
2021/11/20 09:14:32;;;;;;;2.87;1.47;;;21.80;55.50;;;;;;5030853;28;20391;-81
2021/11/20 09:16:59;;;;;;;2.40;1.67;;;21.80;55.50;;;;;;5031359;28;20407;-80
2021/11/20 09:19:32;;;;;;;3.20;1.57;;;21.80;55.50;;;;;;5030597;28;20429;-80
2021/11/20 09:22:00;;;;;;;2.43;1.50;;;21.80;55.50;;;;;;5030047;28;20407;-78
2021/11/20 09:24:30;;;;;;;2.83;1.70;;;21.80;55.50;;;;;;5012224;28;20419;-80
2021/11/20 09:26:57;;;;;;;2.50;1.37;;;21.80;55.50;;;;;;5012775;28;20553;-79
2021/11/20 09:29:26;;;;;;;2.30;1.80;;;21.80;55.50;;;;;;5029059;28;20466;-80
2021/11/20 09:31:52;;;;;;;3.77;1.60;;;21.80;55.50;;;;;;5028504;28;20435;-80
2021/11/20 09:34:19;;;;;;;2.77;1.90;;;21.80;55.50;;;;;;5029357;28;20422;-80
2021/11/20 09:36:46;;;;;;;2.43;1.63;;;21.80;55.50;;;;;;5029291;28;20424;-79
2021/11/20 09:39:15;;;;;;;1.83;1.50;;;21.80;55.50;;;;;;5028990;28;20419;-78
2021/11/20 09:42:19;;;;;;;3.93;1.97;;;21.80;55.50;;;;;;5029270;28;20503;-80
2021/11/20 09:44:48;;;;;;;2.47;1.60;;;21.90;55.50;;;;;;5028452;28;20411;-80
2021/11/20 09:47:34;;;;;;;2.87;2.23;;;21.80;55.50;;;;;;5030492;28;20451;-80
2021/11/20 09:50:20;;;;;;;2.60;1.77;;;21.90;55.60;;;;;;5028538;28;20867;-80
2021/11/20 09:52:49;;;;;;;2.50;2.10;;;21.80;55.50;;;;;;5027999;28;20450;-80
2021/11/20 09:55:28;;;;;;;2.10;1.53;;;21.80;55.50;;;;;;5028621;28;20431;-79
2021/11/20 09:58:16;;;;;;;2.50;1.73;;;21.80;55.50;;;;;;5029148;28;20412;-78
2021/11/20 10:01:26;;;;;;;1.53;1.40;;;21.80;55.50;;;;;;5029415;28;20416;-78
2021/11/20 10:04:01;;;;;;;2.20;1.70;;;21.90;55.50;;;;;;5021742;28;20458;-79
2021/11/20 10:06:29;;;;;;;4.60;2.57;;;21.80;55.50;;;;;;5029863;28;20426;-78
2021/11/20 10:09:20;;;;;;;2.57;1.63;;;21.80;55.50;;;;;;5029864;28;20515;-79
2021/11/20 10:11:58;;;;;;;2.03;1.67;;;21.80;55.50;;;;;;5032568;28;20461;-78
2021/11/20 10:14:36;;;;;;;2.80;1.90;;;21.80;55.50;;;;;;5030477;28;20410;-79
2021/11/20 10:17:33;;;;;;;2.87;1.90;;;21.90;55.60;;;;;;5030699;28;20407;-79
2021/11/20 10:20:11;;;;;;;5.17;1.93;;;21.80;55.50;;;;;;5031431;28;20403;-80
2021/11/20 10:23:10;;;;;;;7.20;1.93;;;21.80;55.50;;;;;;5031318;28;20411;-81
2021/11/20 10:26:03;;;;;;;3.80;2.90;;;21.90;55.60;;;;;;5032875;28;20430;-80
2021/11/20 10:29:06;;;;;;;5.90;2.33;;;21.90;55.60;;;;;;5033612;28;20453;-80
2021/11/20 10:31:37;;;;;;;4.60;2.17;;;21.80;55.50;;;;;;5032195;28;20410;-80
2021/11/20 10:34:24;;;;;;;3.40;2.17;;;21.80;55.50;;;;;;5033801;28;20408;-79
2021/11/20 10:37:13;;;;;;;2.87;2.00;;;21.90;55.60;;;;;;5033220;28;20407;-80
2021/11/20 10:40:11;;;;;;;2.63;2.13;;;21.80;55.50;;;;;;5031622;28;20423;-79
2021/11/20 10:42:40;;;;;;;3.13;1.60;;;21.80;55.50;;;;;;5024049;28;20487;-79
2021/11/20 10:45:11;;;;;;;2.30;2.00;;;21.80;55.50;;;;;;5032737;28;20430;-78
2021/11/20 10:48:11;;;;;;;4.00;1.57;;;21.80;55.50;;;;;;5031980;28;20479;-78
2021/11/20 10:50:47;;;;;;;1.93;1.47;;;21.80;55.50;;;;;;5033164;28;20458;-79
2021/11/20 10:53:36;;;;;;;3.10;1.90;;;21.90;55.60;;;;;;5032726;28;20392;-79
2021/11/20 10:56:55;;;;;;;3.37;1.70;;;21.90;56.10;;;;;;5031963;28;20426;-79
2021/11/20 10:59:41;;;;;;;6.70;2.40;;;21.90;55.50;;;;;;4993840;28;20405;-78
2021/11/20 11:02:46;;;;;;;5.27;2.60;;;21.80;55.50;;;;;;5041147;28;20437;-78
2021/11/20 11:05:36;;;;;;;4.97;2.23;;;21.90;55.60;;;;;;5052369;28;20410;-78
2021/11/20 11:08:20;;;;;;;3.30;2.27;;;21.80;55.50;;;;;;5052119;28;20466;-78
2021/11/20 11:10:51;;;;;;;4.30;2.40;;;21.80;55.50;;;;;;5054081;28;20382;-79
2021/11/20 11:13:46;;;;;;;4.40;1.97;;;21.80;55.50;;;;;;5052576;28;20521;-79
2021/11/20 11:16:15;;;;;;;3.83;2.20;;;21.80;55.50;;;;;;5053087;28;20446;-78
2021/11/20 11:18:42;;;;;;;2.43;1.70;;;21.80;55.50;;;;;;5052705;28;20422;-79
2021/11/20 11:21:46;;;;;;;3.67;2.00;;;21.90;55.60;;;;;;5051474;28;20446;-78
2021/11/20 11:24:53;;;;;;;2.50;1.93;;;21.90;55.50;;;;;;5057509;28;20419;-78
2021/11/20 11:27:31;;;;;;;3.10;2.10;;;21.90;55.60;;;;;;5028604;28;20867;-79
2021/11/20 11:30:09;;;;;;;3.17;2.17;;;21.90;55.60;;;;;;5050103;28;20540;-79
2021/11/20 11:32:38;;;;;;;3.83;1.60;;;21.90;55.60;;;;;;5050243;28;20421;-78
2021/11/20 11:35:15;;;;;;;3.33;1.90;;;21.80;55.50;;;;;;5051323;28;20410;-78
2021/11/20 11:38:11;;;;;;;3.10;2.00;;;21.90;55.50;;;;;;5052873;28;20402;-78
2021/11/20 11:41:01;;;;;;;2.43;1.80;;;21.90;55.50;;;;;;5051850;28;20410;-78
2021/11/20 11:43:53;;;;;;;4.50;2.33;;;21.90;55.60;;;;;;5032890;28;20414;-78
2021/11/20 11:46:29;;;;;;;3.70;2.60;;;21.90;55.50;;;;;;5033900;28;20419;-78
2021/11/20 11:49:12;;;;;;;4.93;2.33;;;21.90;55.60;;;;;;5038515;28;20885;-81
2021/11/20 11:52:11;;;;;;;3.40;2.07;;;21.90;55.50;;;;;;5052706;28;20422;-78
2021/11/20 11:54:42;;;;;;;5.40;2.63;;;21.90;55.50;;;;;;5053439;28;20402;-80
2021/11/20 11:57:14;;;;;;;4.03;3.13;;;21.90;55.60;;;;;;5051112;28;20909;-79
2021/11/20 11:59:42;;;;;;;4.47;2.70;;;21.90;55.50;;;;;;5052224;28;20462;-79
2021/11/20 12:02:20;;;;;;;4.27;2.90;;;21.90;55.50;;;;;;5050293;28;20421;-80
2021/11/20 12:04:54;;;;;;;4.43;2.30;;;21.90;55.50;;;;;;5031821;28;20756;-79
2021/11/20 12:07:45;;;;;;;5.90;2.40;;;21.90;55.50;;;;;;5031142;28;20510;-79
2021/11/20 12:10:24;;;;;;;4.07;2.03;;;21.90;55.50;;;;;;5021286;28;20419;-79
2021/11/20 12:13:07;;;;;;;3.83;2.20;;;21.90;55.50;;;;;;5051341;28;20403;-78
2021/11/20 12:15:50;;;;;;;6.10;2.17;;;21.90;56.10;;;;;;5050536;28;20402;-78
2021/11/20 12:18:33;;;;;;;2.90;2.00;;;21.90;55.60;;;;;;5050093;28;20432;-78
2021/11/20 12:21:15;;;;;;;5.40;2.90;;;21.90;55.60;;;;;;5049538;28;20514;-79
2021/11/20 12:23:59;;;;;;;4.47;2.33;;;21.90;55.60;;;;;;5045980;28;20438;-81
2021/11/20 12:26:28;;;;;;;4.80;2.47;;;21.90;55.60;;;;;;5046802;28;20433;-79
2021/11/20 12:28:55;;;;;;;5.00;2.30;;;21.90;55.60;;;;;;5049323;28;20450;-79
2021/11/20 12:31:55;;;;;;;7.00;2.67;;;21.80;55.50;;;;;;5045866;28;20419;-79
2021/11/20 12:34:37;;;;;;;4.00;2.50;;;21.90;55.50;;;;;;5046066;28;20427;-78
2021/11/20 12:37:30;;;;;;;2.50;1.83;;;21.90;55.60;;;;;;5041162;28;20426;-79
2021/11/20 12:40:24;;;;;;;3.77;2.37;;;21.90;55.60;;;;;;5045194;28;20433;-79
2021/11/20 12:43:08;;;;;;;3.10;1.70;;;21.90;55.60;;;;;;5041291;28;20414;-79
2021/11/20 12:45:34;;;;;;;3.70;2.10;;;21.90;55.60;;;;;;5051685;28;20442;-78
2021/11/20 12:48:32;;;;;;;2.73;2.23;;;21.90;55.60;;;;;;5040104;28;20471;-77
2021/11/20 12:51:25;;;;;;;2.97;1.70;;;21.90;55.60;;;;;;5016619;28;20218;-78
2021/11/20 12:53:51;;;;;;;5.43;2.10;;;21.90;55.60;;;;;;5043415;28;20414;-80
2021/11/20 12:56:39;;;;;;;2.27;2.07;;;21.90;55.60;;;;;;5061765;28;20489;-79
2021/11/20 12:59:19;;;;;;;3.57;1.90;;;21.90;55.60;;;;;;5035178;28;20600;-78
2021/11/20 13:01:54;;;;;;;3.70;2.00;;;21.90;55.60;;;;;;5046385;28;20442;-78
2021/11/20 13:04:37;;;;;;;2.60;2.23;;;21.90;55.60;;;;;;5051556;28;20409;-77
2021/11/20 13:07:08;;;;;;;4.00;2.20;;;21.90;55.50;;;;;;5050485;28;20480;-77
2021/11/20 13:09:49;;;;;;;2.40;1.80;;;21.90;55.50;;;;;;5051617;28;20418;-77
2021/11/20 13:12:39;;;;;;;3.77;1.97;;;22.00;55.60;;;;;;5034762;28;20453;-78
2021/11/20 13:15:21;;;;;;;7.33;2.80;;;21.90;55.50;;;;;;5050094;28;20502;-78
2021/11/20 13:17:55;;;;;;;2.53;1.47;;;22.00;55.60;;;;;;5051497;28;20433;-77
2021/11/20 13:20:50;;;;;;;3.33;2.00;;;22.00;55.60;;;;;;5049855;28;20420;-79
2021/11/20 13:23:22;;;;;;;3.63;2.00;;;22.00;55.50;;;;;;5049966;28;20411;-78
2021/11/20 13:26:00;;;;;;;3.33;1.80;;;21.90;55.50;;;;;;5049954;28;20452;-78